Time;durP1;ratioP1;P1;durP2;ratioP2;P2;SDS_P1;SDS_P2;PMS_P1;PMS_P2;Temp;Humidity;BMP_temperature;BMP_pressure;BME280_temperature;BME280_humidity;BME280_pressure;Samples;Min_cycle;Max_cycle;Signal;HPM_P1;HPM_P2
2021/08/22 00:02:05;;;;;;;10.95;5.57;;;;;;;;;;5010616;28;20088;-68
2021/08/22 00:04:34;;;;;;;10.23;5.57;;;;;;;;;;5010821;28;20068;-68
2021/08/22 00:07:02;;;;;;;10.05;5.70;;;;;;;;;;5011828;28;20060;-68
2021/08/22 00:09:30;;;;;;;10.35;5.60;;;;;;;;;;5011180;28;20189;-68
2021/08/22 00:12:00;;;;;;;9.60;6.05;;;;;;;;;;5011185;28;20399;-68
2021/08/22 00:14:28;;;;;;;8.65;5.68;;;;;;;;;;5011973;28;20074;-68
2021/08/22 00:16:56;;;;;;;10.60;6.03;;;;;;;;;;5011860;28;20136;-68
2021/08/22 00:19:25;;;;;;;9.98;5.40;;;;;;;;;;5012144;28;20074;-69
2021/08/22 00:21:53;;;;;;;9.07;5.35;;;;;;;;;;5011322;28;20068;-69
2021/08/22 00:24:21;;;;;;;8.15;5.20;;;;;;;;;;5011816;28;20088;-68
2021/08/22 00:26:49;;;;;;;9.45;5.50;;;;;;;;;;5011114;28;20054;-69
2021/08/22 00:29:19;;;;;;;9.38;5.50;;;;;;;;;;5011810;28;20046;-68
2021/08/22 00:31:47;;;;;;;10.13;5.75;;;;;;;;;;5011525;28;20060;-68
2021/08/22 00:34:15;;;;;;;7.88;5.25;;;;;;;;;;5009090;28;20046;-68
2021/08/22 00:36:44;;;;;;;8.73;5.20;;;;;;;;;;5009270;28;20049;-69
2021/08/22 00:39:12;;;;;;;9.43;5.60;;;;;;;;;;5011715;28;20180;-68
2021/08/22 00:41:40;;;;;;;11.10;5.43;;;;;;;;;;5010757;28;20316;-68
2021/08/22 00:44:09;;;;;;;7.30;5.40;;;;;;;;;;5010868;28;20049;-68
2021/08/22 00:46:38;;;;;;;7.80;5.20;;;;;;;;;;5011327;28;20053;-68
2021/08/22 00:49:07;;;;;;;7.97;5.20;;;;;;;;;;5011695;28;20042;-68
2021/08/22 00:51:35;;;;;;;9.52;5.40;;;;;;;;;;5012057;28;20072;-68
2021/08/22 00:54:03;;;;;;;8.00;4.95;;;;;;;;;;5011366;28;20060;-68
2021/08/22 00:56:32;;;;;;;8.30;4.88;;;;;;;;;;5010182;28;20077;-68
2021/08/22 00:59:02;;;;;;;8.23;5.20;;;;;;;;;;5010647;28;20713;-67
2021/08/22 01:01:31;;;;;;;9.02;5.05;;;;;;;;;;5011385;28;20042;-67
2021/08/22 01:04:06;;;;;;;8.70;4.90;;;;;;;;;;5020039;23;20046;-61
2021/08/22 01:06:39;;;;;;;9.20;4.82;;;;;;;;;;5010048;28;20494;-61
2021/08/22 01:09:10;;;;;;;9.95;5.40;;;;;;;;;;5009473;28;20046;-61
2021/08/22 01:11:39;;;;;;;9.45;5.65;;;;;;;;;;5011562;28;20128;-61
2021/08/22 01:14:11;;;;;;;11.40;5.75;;;;;;;;;;5008483;28;20121;-61
2021/08/22 01:16:40;;;;;;;6.95;5.07;;;;;;;;;;5010847;28;20113;-61
2021/08/22 01:19:16;;;;;;;8.40;5.03;;;;;;;;;;5008303;28;20057;-61
2021/08/22 01:21:44;;;;;;;9.38;5.10;;;;;;;;;;5011791;28;20145;-61
2021/08/22 01:24:12;;;;;;;8.68;4.88;;;;;;;;;;5006418;28;20083;-61
2021/08/22 01:26:41;;;;;;;7.25;4.75;;;;;;;;;;5009328;28;20052;-61
2021/08/22 01:29:09;;;;;;;9.48;5.25;;;;;;;;;;5010595;28;20140;-61
2021/08/22 01:31:40;;;;;;;8.45;4.93;;;;;;;;;;5010531;28;20577;-61
2021/08/22 01:34:10;;;;;;;7.15;4.53;;;;;;;;;;5009699;28;20042;-61
2021/08/22 01:36:39;;;;;;;8.80;5.05;;;;;;;;;;5010250;28;20141;-61
2021/08/22 01:39:08;;;;;;;9.07;5.43;;;;;;;;;;5010454;28;20071;-59
2021/08/22 01:41:36;;;;;;;9.63;5.72;;;;;;;;;;5009715;28;20500;-59
2021/08/22 01:44:06;;;;;;;8.32;4.95;;;;;;;;;;5009773;28;20052;-59
2021/08/22 01:46:35;;;;;;;9.15;5.07;;;;;;;;;;5010490;28;20530;-59
2021/08/22 01:49:05;;;;;;;10.23;4.50;;;;;;;;;;5010300;28;20046;-59
2021/08/22 01:51:35;;;;;;;8.00;4.82;;;;;;;;;;5004657;28;20038;-59
2021/08/22 01:54:06;;;;;;;8.43;5.03;;;;;;;;;;5009112;28;20132;-59
2021/08/22 01:56:35;;;;;;;8.00;4.90;;;;;;;;;;5000225;28;20046;-59
2021/08/22 01:59:03;;;;;;;7.72;4.55;;;;;;;;;;5010917;28;20064;-59
2021/08/22 02:01:32;;;;;;;7.50;4.93;;;;;;;;;;5009978;28;20052;-59
2021/08/22 02:04:03;;;;;;;6.85;4.38;;;;;;;;;;5007830;28;20064;-59
2021/08/22 02:06:33;;;;;;;9.50;4.95;;;;;;;;;;5007546;28;20057;-59
2021/08/22 02:09:04;;;;;;;9.60;4.93;;;;;;;;;;5010716;28;20045;-59
2021/08/22 02:11:37;;;;;;;7.45;4.88;;;;;;;;;;5010183;28;20049;-59
2021/08/22 02:14:07;;;;;;;7.03;4.63;;;;;;;;;;5009537;28;20056;-59
2021/08/22 02:16:35;;;;;;;8.50;4.50;;;;;;;;;;5009432;28;20498;-59
2021/08/22 02:19:04;;;;;;;7.47;4.40;;;;;;;;;;5010589;28;20061;-59
2021/08/22 02:21:32;;;;;;;7.80;4.50;;;;;;;;;;5009982;28;20056;-59
2021/08/22 02:24:01;;;;;;;8.50;4.70;;;;;;;;;;5009206;28;20046;-59
2021/08/22 02:26:30;;;;;;;6.88;4.68;;;;;;;;;;5008806;28;20425;-59
2021/08/22 02:28:59;;;;;;;8.95;4.72;;;;;;;;;;5009387;28;20145;-59
2021/08/22 02:31:29;;;;;;;7.47;4.47;;;;;;;;;;5009659;28;20513;-59
2021/08/22 02:33:57;;;;;;;7.45;4.35;;;;;;;;;;5007590;28;20050;-59
2021/08/22 02:36:26;;;;;;;7.78;4.68;;;;;;;;;;5009450;28;20120;-59
2021/08/22 02:38:54;;;;;;;7.22;4.85;;;;;;;;;;5008957;28;20144;-59
2021/08/22 02:41:22;;;;;;;6.97;4.68;;;;;;;;;;5010452;28;20052;-59
2021/08/22 02:43:53;;;;;;;8.90;4.85;;;;;;;;;;5008986;28;20045;-59
2021/08/22 02:46:21;;;;;;;7.05;4.70;;;;;;;;;;5010260;28;20065;-59
2021/08/22 02:48:49;;;;;;;9.20;5.22;;;;;;;;;;5008738;28;20402;-59
2021/08/22 02:51:17;;;;;;;8.70;4.88;;;;;;;;;;5009952;28;20145;-59
2021/08/22 02:53:46;;;;;;;11.13;4.97;;;;;;;;;;5009836;28;20060;-59
2021/08/22 02:56:14;;;;;;;8.95;4.93;;;;;;;;;;5005453;28;20038;-59
2021/08/22 02:58:42;;;;;;;7.78;4.50;;;;;;;;;;5002328;28;20039;-59
2021/08/22 03:01:12;;;;;;;9.98;5.32;;;;;;;;;;5007383;28;20044;-59
2021/08/22 03:03:40;;;;;;;7.10;4.50;;;;;;;;;;5008333;28;20140;-59
2021/08/22 03:06:09;;;;;;;10.98;4.80;;;;;;;;;;5012023;28;20096;-59
2021/08/22 03:08:37;;;;;;;7.82;4.90;;;;;;;;;;5013532;28;20516;-59
2021/08/22 03:11:05;;;;;;;8.02;4.32;;;;;;;;;;5013596;28;20425;-59
2021/08/22 03:13:33;;;;;;;11.45;5.45;;;;;;;;;;5012651;28;20052;-59
2021/08/22 03:16:02;;;;;;;7.95;4.93;;;;;;;;;;5012752;28;20048;-59
2021/08/22 03:18:31;;;;;;;7.25;4.38;;;;;;;;;;5013363;28;20084;-59
2021/08/22 03:20:59;;;;;;;11.48;5.38;;;;;;;;;;5013429;28;20065;-59
2021/08/22 03:23:28;;;;;;;10.32;4.80;;;;;;;;;;5012569;28;20355;-59
2021/08/22 03:25:56;;;;;;;9.60;5.35;;;;;;;;;;5001195;28;20050;-59
2021/08/22 03:28:26;;;;;;;7.63;4.93;;;;;;;;;;5007644;28;20057;-59
2021/08/22 03:31:05;;;;;;;6.28;3.80;;;;;;;;;;3406439;28;10021494;-59
2021/08/22 03:33:35;;;;;;;9.35;4.88;;;;;;;;;;2243045;28;10002046;-59
2021/08/22 03:36:03;;;;;;;8.68;5.03;;;;;;;;;;5011965;28;20042;-59
2021/08/22 03:38:32;;;;;;;12.60;5.63;;;;;;;;;;5013176;28;20056;-59
2021/08/22 03:41:00;;;;;;;13.13;4.97;;;;;;;;;;5013713;28;20052;-59
2021/08/22 03:43:28;;;;;;;8.68;5.28;;;;;;;;;;5013014;28;20136;-59
2021/08/22 03:45:57;;;;;;;9.55;5.03;;;;;;;;;;5013331;28;20080;-58
2021/08/22 03:48:25;;;;;;;8.43;4.63;;;;;;;;;;5013546;28;20398;-59
2021/08/22 03:50:54;;;;;;;6.55;4.38;;;;;;;;;;5013565;28;20060;-59
2021/08/22 03:53:23;;;;;;;12.10;4.95;;;;;;;;;;5013772;28;20450;-59
2021/08/22 03:55:51;;;;;;;9.00;4.75;;;;;;;;;;5011229;28;20056;-60
2021/08/22 03:58:19;;;;;;;10.20;5.25;;;;;;;;;;5006644;28;20125;-60
2021/08/22 04:00:47;;;;;;;8.63;4.82;;;;;;;;;;5012784;28;20056;-59
2021/08/22 04:03:16;;;;;;;9.13;5.05;;;;;;;;;;5012064;28;20176;-58
2021/08/22 04:05:44;;;;;;;13.82;5.43;;;;;;;;;;5011317;28;20107;-59
2021/08/22 04:08:14;;;;;;;9.15;5.43;;;;;;;;;;5012566;28;20049;-59
2021/08/22 04:10:43;;;;;;;8.35;5.18;;;;;;;;;;5015043;28;20073;-59
2021/08/22 04:13:11;;;;;;;10.95;5.20;;;;;;;;;;5011403;28;20052;-59
2021/08/22 04:15:39;;;;;;;8.80;4.85;;;;;;;;;;5011933;28;20053;-59
2021/08/22 04:18:07;;;;;;;7.93;5.18;;;;;;;;;;5011041;28;20045;-59
2021/08/22 04:20:36;;;;;;;10.55;5.47;;;;;;;;;;5010605;28;20072;-59
2021/08/22 04:23:04;;;;;;;7.80;5.20;;;;;;;;;;5011428;28;20140;-59
2021/08/22 04:25:33;;;;;;;9.90;5.35;;;;;;;;;;5012293;28;20053;-59
2021/08/22 04:28:02;;;;;;;11.70;5.85;;;;;;;;;;5011422;28;20389;-59
2021/08/22 04:30:30;;;;;;;10.27;5.50;;;;;;;;;;5008638;28;20073;-59
2021/08/22 04:32:58;;;;;;;8.32;4.72;;;;;;;;;;5007933;28;20058;-60
2021/08/22 04:35:26;;;;;;;10.13;5.85;;;;;;;;;;5007434;28;20060;-60
2021/08/22 04:37:55;;;;;;;9.32;5.35;;;;;;;;;;5007370;28;20056;-60
2021/08/22 04:40:23;;;;;;;9.27;5.20;;;;;;;;;;5008548;28;20060;-60
2021/08/22 04:42:53;;;;;;;8.52;5.03;;;;;;;;;;5007602;28;20064;-60
2021/08/22 04:45:22;;;;;;;8.90;5.05;;;;;;;;;;5009325;28;20497;-60
2021/08/22 04:47:51;;;;;;;9.10;5.10;;;;;;;;;;5008752;28;20405;-60
2021/08/22 04:50:19;;;;;;;10.43;5.47;;;;;;;;;;5008465;28;20054;-60
2021/08/22 04:52:48;;;;;;;12.07;5.97;;;;;;;;;;5008880;28;20114;-60
2021/08/22 04:55:16;;;;;;;11.50;6.00;;;;;;;;;;5008516;28;20050;-60
2021/08/22 04:57:45;;;;;;;10.55;5.35;;;;;;;;;;5002764;28;20421;-60
2021/08/22 05:00:15;;;;;;;9.77;5.20;;;;;;;;;;5007869;28;20057;-60
2021/08/22 05:02:44;;;;;;;11.15;5.85;;;;;;;;;;5008190;28;20128;-60
2021/08/22 05:05:12;;;;;;;10.95;5.60;;;;;;;;;;5007568;28;20085;-60
2021/08/22 05:07:40;;;;;;;8.82;5.30;;;;;;;;;;5008162;28;20059;-60
2021/08/22 05:10:09;;;;;;;10.13;4.85;;;;;;;;;;5007871;28;20362;-60
2021/08/22 05:12:37;;;;;;;10.65;5.13;;;;;;;;;;5005109;28;20442;-60
2021/08/22 05:15:07;;;;;;;10.25;4.97;;;;;;;;;;5006836;28;20046;-60
2021/08/22 05:17:37;;;;;;;10.23;5.68;;;;;;;;;;5008372;28;20050;-60
2021/08/22 05:20:05;;;;;;;7.28;3.97;;;;;;;;;;5006301;28;20464;-60
2021/08/22 05:22:34;;;;;;;9.02;4.38;;;;;;;;;;5007944;28;20414;-60
2021/08/22 05:25:02;;;;;;;8.25;4.28;;;;;;;;;;5007773;28;20053;-60
2021/08/22 05:27:30;;;;;;;9.40;4.57;;;;;;;;;;5007961;28;20521;-60
2021/08/22 05:29:58;;;;;;;7.20;4.25;;;;;;;;;;5008591;28;20050;-60
2021/08/22 05:32:26;;;;;;;7.50;4.05;;;;;;;;;;5011786;28;20042;-60
2021/08/22 05:34:56;;;;;;;8.25;4.93;;;;;;;;;;5011547;28;20064;-60
2021/08/22 05:37:24;;;;;;;8.43;5.15;;;;;;;;;;5010848;28;20414;-60
2021/08/22 05:39:52;;;;;;;7.22;4.72;;;;;;;;;;5005954;28;20160;-60
2021/08/22 05:42:20;;;;;;;8.73;3.97;;;;;;;;;;5006340;28;20140;-60
2021/08/22 05:44:49;;;;;;;8.65;4.80;;;;;;;;;;5008002;28;20054;-60
2021/08/22 05:47:20;;;;;;;8.52;5.20;;;;;;;;;;4995826;28;20056;-59
2021/08/22 05:49:48;;;;;;;8.82;4.57;;;;;;;;;;4991156;28;20781;-60
2021/08/22 05:52:18;;;;;;;10.65;5.55;;;;;;;;;;4994796;28;20046;-60
2021/08/22 05:54:46;;;;;;;10.48;6.63;;;;;;;;;;4991596;28;20069;-59
2021/08/22 05:57:14;;;;;;;10.93;6.05;;;;;;;;;;4990679;28;20192;-59
2021/08/22 05:59:43;;;;;;;10.60;4.47;;;;;;;;;;5007259;28;20051;-59
2021/08/22 06:02:11;;;;;;;9.07;4.50;;;;;;;;;;5004591;28;20057;-60
2021/08/22 06:04:39;;;;;;;7.55;4.25;;;;;;;;;;5004372;28;20050;-60
2021/08/22 06:07:07;;;;;;;8.93;4.43;;;;;;;;;;5004758;28;20041;-60
2021/08/22 06:09:37;;;;;;;8.95;4.28;;;;;;;;;;5003138;28;20053;-60
2021/08/22 06:12:06;;;;;;;6.32;3.72;;;;;;;;;;5004608;28;20038;-59
2021/08/22 06:14:34;;;;;;;6.55;3.83;;;;;;;;;;5003875;28;20398;-60
2021/08/22 06:17:02;;;;;;;8.13;3.95;;;;;;;;;;5006218;28;20052;-59
2021/08/22 06:19:30;;;;;;;7.43;3.85;;;;;;;;;;5005850;28;20050;-60
2021/08/22 06:21:59;;;;;;;6.63;3.67;;;;;;;;;;4999270;28;20065;-60
2021/08/22 06:24:27;;;;;;;6.45;3.55;;;;;;;;;;4998305;28;20065;-60
2021/08/22 06:26:56;;;;;;;8.00;3.50;;;;;;;;;;4998910;28;20050;-60
2021/08/22 06:29:24;;;;;;;6.13;3.55;;;;;;;;;;5000672;28;20409;-60
2021/08/22 06:31:53;;;;;;;7.43;3.28;;;;;;;;;;5001646;28;20405;-60
2021/08/22 06:34:21;;;;;;;6.57;3.08;;;;;;;;;;5001408;28;20524;-60
2021/08/22 06:36:49;;;;;;;5.10;2.78;;;;;;;;;;5006178;28;20069;-60
2021/08/22 06:39:17;;;;;;;4.70;2.70;;;;;;;;;;5005612;28;20050;-59
2021/08/22 06:41:45;;;;;;;5.20;2.97;;;;;;;;;;5008824;28;20042;-60
2021/08/22 06:44:15;;;;;;;5.28;2.63;;;;;;;;;;5006711;28;20056;-60
2021/08/22 06:46:44;;;;;;;6.78;2.58;;;;;;;;;;5009108;28;20045;-60
2021/08/22 06:49:12;;;;;;;4.40;2.67;;;;;;;;;;4997782;28;20050;-60
2021/08/22 06:51:40;;;;;;;5.57;2.85;;;;;;;;;;4994249;28;20049;-60
2021/08/22 06:54:08;;;;;;;5.18;2.47;;;;;;;;;;4995395;28;20064;-60
2021/08/22 06:56:36;;;;;;;4.80;2.53;;;;;;;;;;4998554;28;20050;-60
2021/08/22 06:59:05;;;;;;;6.05;2.63;;;;;;;;;;5007714;28;20046;-60
2021/08/22 07:01:36;;;;;;;3.88;2.22;;;;;;;;;;5002050;28;20711;-60
2021/08/22 07:04:04;;;;;;;3.67;2.38;;;;;;;;;;5000017;28;20053;-60
2021/08/22 07:06:33;;;;;;;5.50;2.30;;;;;;;;;;4997782;28;20045;-60
2021/08/22 07:09:01;;;;;;;4.63;2.60;;;;;;;;;;5004572;28;20057;-60
2021/08/22 07:11:29;;;;;;;4.43;2.30;;;;;;;;;;5002916;28;20054;-60
2021/08/22 07:13:58;;;;;;;3.55;2.03;;;;;;;;;;5004662;28;20053;-60
2021/08/22 07:16:26;;;;;;;3.65;2.35;;;;;;;;;;5002655;28;20056;-60
2021/08/22 07:18:56;;;;;;;4.88;2.10;;;;;;;;;;4999691;28;20137;-60
2021/08/22 07:21:24;;;;;;;4.90;2.38;;;;;;;;;;5005036;28;20049;-60
2021/08/22 07:23:52;;;;;;;3.58;1.98;;;;;;;;;;4998991;28;20054;-60
2021/08/22 07:26:20;;;;;;;4.22;2.08;;;;;;;;;;5002726;28;20046;-60
2021/08/22 07:28:49;;;;;;;4.10;2.20;;;;;;;;;;4999966;28;20054;-60
2021/08/22 07:31:17;;;;;;;4.72;2.38;;;;;;;;;;4997069;28;20054;-60
2021/08/22 07:33:45;;;;;;;4.72;2.22;;;;;;;;;;4998904;28;20054;-61
2021/08/22 07:36:15;;;;;;;5.90;2.50;;;;;;;;;;4997120;28;20064;-60
2021/08/22 07:38:43;;;;;;;5.32;2.38;;;;;;;;;;5001086;28;20050;-60
2021/08/22 07:41:12;;;;;;;4.25;2.15;;;;;;;;;;4999367;28;20056;-60
2021/08/22 07:43:40;;;;;;;5.55;2.67;;;;;;;;;;5000694;28;20054;-60
2021/08/22 07:46:08;;;;;;;8.43;2.50;;;;;;;;;;5007618;28;20135;-60
2021/08/22 07:48:37;;;;;;;4.55;2.28;;;;;;;;;;5009622;28;20050;-60
2021/08/22 07:51:05;;;;;;;4.65;2.30;;;;;;;;;;5001651;28;20509;-60
2021/08/22 07:53:36;;;;;;;4.75;2.08;;;;;;;;;;4997794;28;20046;-60
2021/08/22 07:56:05;;;;;;;4.55;2.45;;;;;;;;;;4995775;28;20142;-61
2021/08/22 07:58:34;;;;;;;3.97;1.90;;;;;;;;;;5003629;28;20395;-61
2021/08/22 08:01:02;;;;;;;5.28;2.30;;;;;;;;;;5000248;28;20127;-61
2021/08/22 08:03:30;;;;;;;5.70;2.80;;;;;;;;;;4998518;28;20125;-61
2021/08/22 08:05:59;;;;;;;4.00;2.25;;;;;;;;;;5008347;28;20050;-60
2021/08/22 08:08:27;;;;;;;2.80;1.70;;;;;;;;;;5004523;28;20049;-60
2021/08/22 08:10:57;;;;;;;4.63;2.53;;;;;;;;;;5001245;28;20123;-61
2021/08/22 08:13:25;;;;;;;3.67;2.30;;;;;;;;;;5003790;28;20046;-61
2021/08/22 08:15:53;;;;;;;3.38;1.85;;;;;;;;;;4998575;28;20174;-60
2021/08/22 08:18:21;;;;;;;3.28;2.17;;;;;;;;;;5002638;28;20500;-60
2021/08/22 08:20:50;;;;;;;3.22;1.98;;;;;;;;;;4997913;28;20058;-61
2021/08/22 08:23:18;;;;;;;4.88;2.15;;;;;;;;;;5003398;28;20128;-60
2021/08/22 08:25:46;;;;;;;3.70;2.00;;;;;;;;;;5005042;28;20048;-60
2021/08/22 08:28:17;;;;;;;4.47;1.90;;;;;;;;;;5006392;28;20491;-60
2021/08/22 08:30:45;;;;;;;3.47;2.00;;;;;;;;;;5003652;28;20046;-60
2021/08/22 08:33:13;;;;;;;3.17;1.95;;;;;;;;;;4999357;28;20057;-60
2021/08/22 08:35:42;;;;;;;2.83;1.90;;;;;;;;;;5001918;28;20565;-60
2021/08/22 08:38:10;;;;;;;2.72;1.67;;;;;;;;;;4994498;28;20054;-60
2021/08/22 08:40:40;;;;;;;3.10;1.70;;;;;;;;;;5004047;28;20312;-60
2021/08/22 08:43:09;;;;;;;4.80;2.22;;;;;;;;;;4999309;28;20054;-60
2021/08/22 08:45:41;;;;;;;2.85;1.85;;;;;;;;;;4993857;28;20355;-60
2021/08/22 08:48:09;;;;;;;3.55;1.98;;;;;;;;;;4998245;28;20499;-60
2021/08/22 08:50:38;;;;;;;3.58;2.20;;;;;;;;;;4999923;28;20442;-60
2021/08/22 08:53:06;;;;;;;3.35;1.95;;;;;;;;;;4997324;28;20050;-60
2021/08/22 08:55:35;;;;;;;4.43;1.85;;;;;;;;;;4998692;28;20590;-61
2021/08/22 08:58:03;;;;;;;2.80;1.80;;;;;;;;;;5001918;28;20129;-60
2021/08/22 09:00:33;;;;;;;2.53;1.70;;;;;;;;;;5001455;28;20053;-60
2021/08/22 09:03:03;;;;;;;4.53;2.10;;;;;;;;;;5001895;28;20148;-60
2021/08/22 09:05:35;;;;;;;2.92;2.00;;;;;;;;;;4994600;28;20557;-60
2021/08/22 09:08:36;;;;;;;3.42;1.85;;;;;;;;;;4999966;28;20053;-60
2021/08/22 09:11:25;;;;;;;3.10;1.85;;;;;;;;;;5001695;28;20089;-61
2021/08/22 09:14:12;;;;;;;3.38;1.88;;;;;;;;;;4998463;28;20050;-62
2021/08/22 09:16:59;;;;;;;3.88;2.08;;;;;;;;;;4997866;28;20046;-61
2021/08/22 09:19:51;;;;;;;3.38;2.10;;;;;;;;;;5000332;28;20141;-61
2021/08/22 09:22:37;;;;;;;3.42;2.20;;;;;;;;;;4996047;28;20054;-61
2021/08/22 09:25:24;;;;;;;2.72;1.60;;;;;;;;;;5001837;28;20050;-61
2021/08/22 09:28:11;;;;;;;3.95;2.10;;;;;;;;;;5000432;28;20050;-62
2021/08/22 09:30:58;;;;;;;3.08;2.00;;;;;;;;;;4999317;28;20145;-62
2021/08/22 09:33:44;;;;;;;4.00;2.28;;;;;;;;;;4996642;28;20462;-62
2021/08/22 09:36:33;;;;;;;2.63;1.52;;;;;;;;;;4999784;28;20052;-62
2021/08/22 09:39:20;;;;;;;3.85;1.80;;;;;;;;;;4997246;28;20081;-62
2021/08/22 09:42:13;;;;;;;3.88;2.13;;;;;;;;;;5002512;28;20057;-61
2021/08/22 09:44:59;;;;;;;3.55;2.10;;;;;;;;;;4998905;28;20100;-61
2021/08/22 09:47:47;;;;;;;3.70;2.30;;;;;;;;;;4999574;28;20482;-61
2021/08/22 09:50:41;;;;;;;3.83;2.00;;;;;;;;;;4992147;28;20138;-61
2021/08/22 09:53:28;;;;;;;4.90;2.50;;;;;;;;;;5001728;28;20057;-61
2021/08/22 09:56:23;;;;;;;3.25;2.10;;;;;;;;;;4982447;28;20136;-61
2021/08/22 09:59:22;;;;;;;4.25;2.30;;;;;;;;;;4965631;28;20046;-61
2021/08/22 10:02:14;;;;;;;3.25;2.00;;;;;;;;;;4930494;28;20055;-61
2021/08/22 10:05:09;;;;;;;3.22;2.10;;;;;;;;;;4995787;28;20054;-61
2021/08/22 10:07:42;;;;;;;5.18;2.15;;;;;;;;;;4995753;28;20422;-61
2021/08/22 10:10:12;;;;;;;3.63;2.20;;;;;;;;;;4999961;28;20112;-61
2021/08/22 10:12:42;;;;;;;3.90;1.90;;;;;;;;;;4993738;28;20073;-61
2021/08/22 10:15:11;;;;;;;3.88;2.03;;;;;;;;;;4998796;28;20042;-61
2021/08/22 10:17:40;;;;;;;3.05;1.90;;;;;;;;;;5001577;28;20077;-61
2021/08/22 10:20:08;;;;;;;3.60;2.30;;;;;;;;;;4997548;28;20108;-60
2021/08/22 10:22:36;;;;;;;4.10;2.08;;;;;;;;;;4999536;28;20053;-61
2021/08/22 10:25:08;;;;;;;3.88;2.25;;;;;;;;;;4993890;28;20054;-61
2021/08/22 10:27:47;;;;;;;3.80;2.03;;;;;;;;;;5002168;28;20496;-61
2021/08/22 10:30:16;;;;;;;3.97;2.10;;;;;;;;;;4998733;28;20133;-61
2021/08/22 10:33:04;;;;;;;3.65;2.00;;;;;;;;;;4999726;28;20084;-61
2021/08/22 10:35:32;;;;;;;3.80;2.10;;;;;;;;;;4994710;28;20037;-61
2021/08/22 10:38:19;;;;;;;4.78;2.00;;;;;;;;;;4996229;28;20241;-61
2021/08/22 10:40:49;;;;;;;3.97;1.90;;;;;;;;;;4997216;28;20053;-61
2021/08/22 10:43:35;;;;;;;4.57;2.45;;;;;;;;;;4997307;28;20498;-61
2021/08/22 10:46:06;;;;;;;3.00;2.25;;;;;;;;;;4958278;28;20053;-61
2021/08/22 10:48:48;;;;;;;3.15;2.10;;;;;;;;;;4998981;28;20050;-61
2021/08/22 10:51:16;;;;;;;3.05;1.77;;;;;;;;;;4999459;28;20049;-61
2021/08/22 10:53:47;;;;;;;3.63;1.85;;;;;;;;;;4995714;28;20050;-61
2021/08/22 10:56:30;;;;;;;3.95;2.00;;;;;;;;;;4987480;28;20588;-61
2021/08/22 10:59:08;;;;;;;3.83;2.03;;;;;;;;;;4986457;28;20612;-61
2021/08/22 11:01:37;;;;;;;3.95;1.95;;;;;;;;;;4993110;28;20125;-61
2021/08/22 11:04:08;;;;;;;2.95;2.10;;;;;;;;;;4996451;28;20482;-61
2021/08/22 11:06:36;;;;;;;4.47;2.42;;;;;;;;;;4994734;28;20148;-61
2021/08/22 11:09:05;;;;;;;3.83;2.15;;;;;;;;;;4996983;28;20524;-61
2021/08/22 11:11:33;;;;;;;4.57;2.40;;;;;;;;;;5002113;28;20508;-61
2021/08/22 11:14:02;;;;;;;3.85;2.13;;;;;;;;;;4999149;28;20088;-61
2021/08/22 11:16:49;;;;;;;3.80;2.17;;;;;;;;;;4998691;28;20046;-61
2021/08/22 11:19:23;;;;;;;4.40;2.33;;;;;;;;;;4994008;28;20240;-61
2021/08/22 11:21:52;;;;;;;3.35;1.90;;;;;;;;;;4993294;28;20062;-62
2021/08/22 11:24:20;;;;;;;3.88;2.20;;;;;;;;;;4998701;28;20077;-62
2021/08/22 11:26:48;;;;;;;4.30;2.47;;;;;;;;;;4995196;28;20060;-61
2021/08/22 11:29:16;;;;;;;3.75;2.22;;;;;;;;;;4997820;28;20153;-62
2021/08/22 11:31:45;;;;;;;4.57;2.33;;;;;;;;;;4997026;28;20509;-62
2021/08/22 11:34:14;;;;;;;3.55;2.03;;;;;;;;;;4995367;28;20409;-61
2021/08/22 11:36:46;;;;;;;3.33;2.17;;;;;;;;;;4998171;28;20141;-61
2021/08/22 11:39:16;;;;;;;3.90;2.30;;;;;;;;;;5001746;28;20056;-61
2021/08/22 11:41:47;;;;;;;4.20;2.03;;;;;;;;;;5001330;28;20137;-61
2021/08/22 11:44:22;;;;;;;2.75;2.10;;;;;;;;;;5004386;28;20053;-61
2021/08/22 11:46:50;;;;;;;;;;;;;;;;;;5005671;28;20050;-62
2021/08/22 11:49:18;;;;;;;3.83;2.30;;;;;;;;;;5004582;28;20467;-61
2021/08/22 11:51:50;;;;;;;4.03;2.00;;;;;;;;;;5004693;28;20554;-61
2021/08/22 11:54:19;;;;;;;3.58;2.05;;;;;;;;;;5004073;28;20144;-62
2021/08/22 11:56:47;;;;;;;2.95;2.10;;;;;;;;;;5001240;28;20046;-61
2021/08/22 11:59:25;;;;;;;3.08;2.15;;;;;;;;;;5003789;28;20042;-62
2021/08/22 12:02:08;;;;;;;2.47;1.70;;;;;;;;;;5000907;28;20566;-62
2021/08/22 12:04:37;;;;;;;3.53;2.22;;;;;;;;;;4997783;28;20050;-61
2021/08/22 12:07:06;;;;;;;4.13;2.15;;;;;;;;;;5004286;28;20105;-62
2021/08/22 12:09:36;;;;;;;3.25;1.80;;;;;;;;;;5002612;28;20502;-61
2021/08/22 12:12:05;;;;;;;3.60;2.25;;;;;;;;;;4994622;28;20074;-61
2021/08/22 12:14:34;;;;;;;4.13;2.53;;;;;;;;;;5002143;28;20049;-61
2021/08/22 12:17:11;;;;;;;3.63;2.22;;;;;;;;;;5002891;28;20056;-61
2021/08/22 12:19:39;;;;;;;2.78;1.85;;;;;;;;;;5005608;28;20049;-61
2021/08/22 12:22:11;;;;;;;3.20;2.00;;;;;;;;;;5005634;28;20434;-61
2021/08/22 12:24:45;;;;;;;3.45;2.25;;;;;;;;;;5000610;28;20100;-61
2021/08/22 12:27:13;;;;;;;4.45;2.38;;;;;;;;;;5003226;28;20048;-61
2021/08/22 12:29:42;;;;;;;4.15;2.58;;;;;;;;;;4999662;28;20053;-61
2021/08/22 12:32:11;;;;;;;4.82;2.35;;;;;;;;;;4994059;28;20097;-61
2021/08/22 12:34:40;;;;;;;5.55;2.20;;;;;;;;;;4998022;28;20096;-61
2021/08/22 12:37:10;;;;;;;5.35;1.90;;;;;;;;;;5000364;28;20140;-61
2021/08/22 12:39:39;;;;;;;4.15;2.40;;;;;;;;;;5000706;28;20137;-61
2021/08/22 12:42:07;;;;;;;5.05;2.50;;;;;;;;;;4999024;28;20048;-61
2021/08/22 12:44:36;;;;;;;5.65;2.55;;;;;;;;;;4995631;28;20057;-61
2021/08/22 12:47:05;;;;;;;3.55;2.33;;;;;;;;;;4997263;28;20124;-61
2021/08/22 12:49:35;;;;;;;4.43;2.60;;;;;;;;;;4998009;28;20060;-61
2021/08/22 12:52:05;;;;;;;3.40;2.10;;;;;;;;;;4996421;28;20054;-61
2021/08/22 12:54:35;;;;;;;4.43;2.30;;;;;;;;;;5002983;28;20482;-61
2021/08/22 12:57:04;;;;;;;4.00;2.50;;;;;;;;;;4996141;28;20454;-62
2021/08/22 12:59:32;;;;;;;3.83;2.05;;;;;;;;;;5005161;28;20045;-59
2021/08/22 13:02:00;;;;;;;3.45;2.20;;;;;;;;;;4992421;28;20057;-59
2021/08/22 13:04:29;;;;;;;4.90;2.50;;;;;;;;;;4993030;28;20146;-61
2021/08/22 13:06:58;;;;;;;4.70;2.50;;;;;;;;;;4997457;28;20125;-61
2021/08/22 13:09:27;;;;;;;3.22;2.00;;;;;;;;;;4998457;28;20184;-61
2021/08/22 13:11:57;;;;;;;3.42;2.17;;;;;;;;;;4994300;28;20893;-62
2021/08/22 13:14:25;;;;;;;3.05;2.42;;;;;;;;;;4997403;28;20160;-62
2021/08/22 13:16:53;;;;;;;3.83;2.30;;;;;;;;;;4997597;28;20450;-62
2021/08/22 13:19:22;;;;;;;5.00;2.60;;;;;;;;;;4999886;28;20050;-62
2021/08/22 13:21:54;;;;;;;3.83;2.33;;;;;;;;;;4999016;28;20042;-61
2021/08/22 13:24:23;;;;;;;2.95;2.20;;;;;;;;;;5001980;28;20053;-61
2021/08/22 13:26:51;;;;;;;7.22;2.40;;;;;;;;;;5002440;28;20454;-62
2021/08/22 13:29:21;;;;;;;3.83;2.30;;;;;;;;;;5003914;28;20056;-61
2021/08/22 13:31:50;;;;;;;5.95;2.65;;;;;;;;;;4999610;28;20497;-62
2021/08/22 13:34:19;;;;;;;4.75;2.40;;;;;;;;;;4999859;28;20405;-62
2021/08/22 13:36:47;;;;;;;4.82;2.25;;;;;;;;;;5004712;28;20103;-61
2021/08/22 13:39:15;;;;;;;5.28;2.30;;;;;;;;;;4998112;28;20212;-61
2021/08/22 13:41:43;;;;;;;8.48;2.97;;;;;;;;;;4997612;28;20057;-61
2021/08/22 13:44:12;;;;;;;4.40;2.33;;;;;;;;;;5001285;28;20053;-61
2021/08/22 13:46:41;;;;;;;4.32;2.38;;;;;;;;;;4997538;28;20141;-60
2021/08/22 13:49:09;;;;;;;4.72;2.70;;;;;;;;;;5000582;28;20427;-61
2021/08/22 13:51:39;;;;;;;5.13;2.58;;;;;;;;;;5001221;28;20077;-61
2021/08/22 13:54:10;;;;;;;5.28;2.70;;;;;;;;;;5000978;28;20528;-61
2021/08/22 13:56:38;;;;;;;4.28;2.53;;;;;;;;;;4996409;28;20078;-61
2021/08/22 13:59:07;;;;;;;5.93;2.58;;;;;;;;;;5002915;28;20046;-61
2021/08/22 14:01:35;;;;;;;5.50;2.60;;;;;;;;;;5000505;28;20049;-61
2021/08/22 14:04:05;;;;;;;4.72;2.75;;;;;;;;;;4993122;28;20065;-61
2021/08/22 14:06:34;;;;;;;4.88;2.38;;;;;;;;;;4994428;28;20062;-61
2021/08/22 14:09:02;;;;;;;5.50;3.10;;;;;;;;;;4998498;28;20487;-61
2021/08/22 14:11:31;;;;;;;7.47;2.85;;;;;;;;;;4998079;28;20130;-60
2021/08/22 14:13:59;;;;;;;7.20;3.03;;;;;;;;;;4997849;28;20507;-60
2021/08/22 14:16:27;;;;;;;5.78;2.80;;;;;;;;;;4996764;28;20046;-61
2021/08/22 14:18:55;;;;;;;7.07;2.90;;;;;;;;;;4994774;28;20053;-61
2021/08/22 14:21:26;;;;;;;6.22;2.65;;;;;;;;;;4993949;28;20050;-61
2021/08/22 14:23:54;;;;;;;5.75;2.85;;;;;;;;;;5000435;28;20160;-61
2021/08/22 14:26:22;;;;;;;6.85;3.08;;;;;;;;;;4999830;28;20526;-60
2021/08/22 14:28:51;;;;;;;4.78;2.97;;;;;;;;;;4998687;28;20060;-60
2021/08/22 14:31:19;;;;;;;6.53;2.72;;;;;;;;;;4999929;28;20046;-60
2021/08/22 14:33:47;;;;;;;5.43;2.78;;;;;;;;;;4998932;28;20041;-60
2021/08/22 14:36:16;;;;;;;6.72;3.08;;;;;;;;;;5001862;28;20125;-60
2021/08/22 14:38:45;;;;;;;4.82;2.92;;;;;;;;;;4999375;28;20147;-60
2021/08/22 14:41:14;;;;;;;6.38;2.90;;;;;;;;;;4999614;28;20042;-60
2021/08/22 14:43:42;;;;;;;5.47;3.17;;;;;;;;;;4997366;28;20357;-61
2021/08/22 14:46:10;;;;;;;6.68;3.40;;;;;;;;;;5002903;28;20081;-61
2021/08/22 14:48:38;;;;;;;5.38;2.80;;;;;;;;;;5000497;28;20050;-61
2021/08/22 14:51:07;;;;;;;4.55;2.85;;;;;;;;;;5002736;28;20081;-61
2021/08/22 14:53:38;;;;;;;5.28;3.20;;;;;;;;;;5002757;28;20054;-61
2021/08/22 14:56:08;;;;;;;4.43;2.90;;;;;;;;;;5000350;28;20085;-62
2021/08/22 14:58:36;;;;;;;5.47;3.08;;;;;;;;;;5001086;28;20141;-61
2021/08/22 15:01:05;;;;;;;5.50;3.08;;;;;;;;;;5003776;28;20054;-61